العودة   :: Flying Way :: > ._][_ سـاحة المطـار والطائرات Airport and Aircraft's yard _][_. > السلامة الجوية Flight Safety
تحديث الصفحة [حـادث] تحطم طائرة إيرانية من طراز ATR تقل 66 راكب جنوب أصفهان ووفاتهم جميعاً بالحادث
الملاحظات

السلامة الجوية Flight Safety   متابعة أخبار حوادث الطيران وتحليل المعلومات التي أدت إليها. راجع فهرس قسم  السلامة الجوية

أدوات الموضوع إبحث في الموضوع
الصورة الرمزية محمد احمد عسيري
Flying Way
قديم 18-02-2018, 11:20 AM   رقم المشاركة : [ 1 ]   
مشاهدة ملفه الشخصي
 
 
 
تم شكره 3,876 مرة في 2,106 مشاركة
محمد احمد عسيري يستحق الثقة والتقديرمحمد احمد عسيري يستحق الثقة والتقديرمحمد احمد عسيري يستحق الثقة والتقديرمحمد احمد عسيري يستحق الثقة والتقديرمحمد احمد عسيري يستحق الثقة والتقديرمحمد احمد عسيري يستحق الثقة والتقديرمحمد احمد عسيري يستحق الثقة والتقديرمحمد احمد عسيري يستحق الثقة والتقديرمحمد احمد عسيري يستحق الثقة والتقديرمحمد احمد عسيري يستحق الثقة والتقديرمحمد احمد عسيري يستحق الثقة والتقدير
معدل تقييم المستوى: 14316
Exclamation تحطم طائرة إيرانية من طراز ATR تقل 66 راكب جنوب أصفهان ووفاتهم جميعاً بالحادث

قالت وسائل إعلام محلية في إيران إن طائرة ركاب تحطمت مما أسفر عن مقتل 60 راكبا وستة أفراد هم طاقم التشغيل في منطقة جبلية وسط إيران.

وسقطت الطائرة في منطقة جبال زاغروس بالقرب من مدينة سيميروم في ولاية أصفهان، الأحد، أثناء رحلة كانت تتجه من طهران إلى مدينة ياسوج جنوب غربي إيران.

وقالت شركة آسمان الإيرانية للخطوط الجوية إن 66 شخصا، هم ركاب الطائرة وطاقم التشغيل، قتلوا جميعا جراء تحطم طائرتها التي كان على متنها الرحلة الجوية.

وقال المتحدث باسم خدمات الطواريء في إيران إن "جميع قوات الطواريء في حالة تأهب"، لكن سوء الأحوال الجوية منع وصول طائرات الهليكوبتر المعدة لأغراض الإنقاذ والإغاثة إلى موقع الحادث.

لكن منظمة الهلال الأحمر أرسلت فرق البحث والإنقاذ إلى موقع الحادث بالقرب من مدينة ساميروم في ولاية أصفهان رغم سوء الأحوال الجوية.

وأشارت تقارير إلى أن الطائرة كان على متنها 60 راكبا، علاوة على مسؤولي أمن، وطاقم ضيفة مكون من شخصين، بالإضافة إلى قائد الطائرة ومساعده.

وأقلعت الطائرة من مطار طهران في الخامسة صباحا بالتوقيت المحلي، لكنها اختفت من على شاشات الرادار بعد وقت قصير من الإقلاع. ويعتقد أن الطائرة الإيرانية دخلت الخدمة منذ 20 سنة ، وهي من طراز ATR 72-500.





http://www.bbc.com/arabic/middleeast-43103767


التعديل الأخير تم بواسطة محمد احمد عسيري ; 18-02-2018 الساعة 01:29 PM. سبب آخر: تم التأكد من عدد الوفيات بالحادث
2 أعضاء قالوا شكراً لـ محمد احمد عسيري على المشاركة المفيدة:
AboAbdulla (19-02-2018), alzaiem (18-02-2018)
قديم 19-02-2018, 09:50 AM   رقم المشاركة : [ 2 ]   
محمد احمد عسيري
Flying Way
الصورة الرمزية محمد احمد عسيري
Exclamation رد: تحطم طائرة إيرانية من طراز ATR تقل 66 راكب جنوب أصفهان ووفاتهم جميعاً بالحادث

الطائرة المنكوبة بتسجيل EP-ATS

الغموض لا يزال يلف كارثة الطائرة الإيرانية المدنية

قال متحدث باسم شركة "آسمان" الإيرانية للطيران، الاثنين، إن البحث لا يزال مستمرا عن طائرة ركاب إيرانية تحطمت، صباح الأحد، بمحافظة أصفهان وسط البلاد.

وذكر محمد تاغي طباطباي لوكالة "إسنا" أنه لا يمكن تحديد إلى حدود الساعة ما إذا كان جميع ركاب هذه الطائرة قد لقوا حتفهم.

وأضاف "نظرا للظروف الخاصة في المنطقة، فإننا ما زلنا غير قادرين على الوصول إلى مكان الحادث، وبالتالي لا يمكننا التأكد من وفاة جميع الركاب".

هذا وقال رئيس لجنة الأمن القومي علاء الدين بروجردي إن طائرة ركاب إيرانية كانت متجهة من طهران إلى مدينة ياسوج جنوب البلاد سقطت، مشيراً إلى أنها كانت تحمل 59 راكبا و6 أفراد للطاقم.

وأضاف "الطائرة سقطت بعد 20 دقيقة من إقلاعها من مطار مهر آباد بطهران".

من جهته، ذكر الرئيس الإيراني حسن روحانى في بيان "أن الحادث المأساوي الذي وقع تسبب لنا في الكثير من الحزن".

وأضاف "أعرب عن تعاطفي مع أسر الضحايا وأقدم التعازي للأمة الإيرانية".

https://www.skynewsarabia.com/web/ar...يرانية-المدنية
  إقتباس
قديم 19-02-2018, 06:30 PM   رقم المشاركة : [ 3 ]   
محمد احمد عسيري
Flying Way
الصورة الرمزية محمد احمد عسيري
Exclamation رد: تحطم طائرة إيرانية من طراز ATR تقل 66 راكب جنوب أصفهان ووفاتهم جميعاً بالحادث

العثور على حطام الطائرة الإيرانية بوسط البلاد
قالت وسائل إعلام رسمية إن السلطات الإيرانية عثرت على حطام الطائرة التي تحطمت الأحد وعلى متنها 65 شخصا في وسط البلاد.

ونقلت وسائل الإعلام الرسمية عن حاكم إقليم بويراحمدي وكوهقيلية قوله يوم الاثنين إن السلطات عثرت على حطام الطائرة قرب مدينة دنكزلو في منطقة سيميروم بإقليم أصفهان.

https://akhbaar24.argaam.com/article...ية-بوسط-البلاد
  إقتباس
قديم 19-02-2018, 06:46 PM   رقم المشاركة : [ 4 ]   
محمد احمد عسيري
Flying Way
الصورة الرمزية محمد احمد عسيري
Exclamation رد: تحطم طائرة إيرانية من طراز ATR تقل 66 راكب جنوب أصفهان ووفاتهم جميعاً بالحادث

Crash: Iran Aseman AT72 near Semirom on Feb 18th 2018, impacted terrain


An Iran Aseman Airlines Avions de Transport Regional ATR-72-212, registration EP-ATS performing flight EP-3704 from Tehran Mehrabad to Yasuj (Iran) with 60 passengers and 6 crew, disappeared from radar near the Dena Mountain at about 08:50L (05:20Z).

Emergency services reported fog and snowfall in the crash area hamper rescue efforts and make it impossible to land helicopters at the crash site. Rescuers are on their way to the crash site by foot.


The airline confirmed the aircraft (initially reporting ATR-72-212A registration EP-ATX built in year 2000, later identifying ATR-72-212 registration EP-ATS built in 1993) has crashed in southern Iran due to "atmospheric conditions" while enroute to Yasuj with 60 passengers and 6 crew (all names were published on the airline's website). The aircraft had departed Mehrabad Airport at 08:00L (04:30Z), contact was lost about 50 minutes later. After the aircraft disappeared, helicopters were dispatched and sighted the aircraft in terrain accessible only by helicopters. Rescue forces are being dispatched on site. The airline subsequently reported no survivors were found at the crash site. The airline added, that the captain involved in the accident flight was experienced stating he had experienced the failure of the #2 engine on his aircraft and had been able to safely land the aircraft in Yasuj in 2014.

Iran's News Agency Fars identified the crashed aircraft as EP-ATS (built in 1993) based on "some source". According to Mode-S data the EP-ATS was flying about 160nm north of Semirom at 05:15Z. Iran's News Agency IRNA however reported EP-ATX based on the statement of the airline, but subsequently changed to EP-ATS.

On Feb 19th 2018 local officials reported the wreckage has been located in the range of Dangazloo (Position of village: N30.8687 E51.6483) and Noqol (Position of village: N30.8672 E51.6531), located about 11nm northnortheast of Yasuj.

Subsequently on Feb 19th 2018 the CAO (Iran's Civil Aviation Authority) denied that report stating the exact location of the wreckage has still not been determined, the last radar contact was 14nm from Yasuj. Helicopters have been dispatched again following weather improvement.

The French BEA joined the investigation led by Iran's CAO and dispatched three investigators and technical advisors to the crash site.


The Dena Mountain features more than 40 peaks above 4000 meters, the highest peak rises up to 4409 meters (14,460 feet).

The aerodrome of Yasuj is surrounded by high mountains. The AIP Iran do not publish any Standard Arrival Route, only Instrument Approach Procedures 1 (Cat A/B including ATR-72) and 2 (Cat C/D) are published together with the aerodrome chart. The IAC marks the MSA 25nm north of the aerodrome at 15,500 feet MSL.

On Oct 26th 2017 the airline had posted a photo of EP-ATS reporting that the aircraft will be restored to flying condition by qualified maintenance engineers after being out of service for seven years.

Metars Yasuj:
OISY 180630Z 14006KT 9999 FEW035CB SCT040 OVC090 15/M02 Q1021=
OISY 180600Z 13004KT 9999 FEW035CB SCT040 OVC090 13/M00 Q1021=
OISY 180530Z 09004KT 9999 FEW035CB SCT040 OVC090 14/M01 Q1022=
OISY 180500Z 00000KT 9999 SCT040 OVC090 11/M00 Q1021=
OISY 180430Z 08006KT 9999 SCT040 SCT090 10/M01 Q1021=
OISY 180400Z 14006KT 9999 FEW040 BKN090 06/00 Q1022=
OISY 180300Z 00000KT 9999 FEW040 BKN090 06/M00 Q1022=
OISY 180200Z 16004KT 9999 FEW040 SCT090 07/M00 Q1022=
OISY 180100Z 10004KT 9999 FEW040 SCT090 06/00 Q1022=


Infrared Satellite SEVIRI IODC Image Feb 18th 2018 06:00Z (Graphics: AVH/Meteosat):



Detail Map (Graphics: AVH/Google Earth):



Map (Graphics: AVH/Google Earth):



Instrument Approach Chart 1 Yasuj (Graphics: AIP Iran):


http://avherald.com/h?article=4b511c15&opt=0
  إقتباس
قديم 20-02-2018, 01:11 PM   رقم المشاركة : [ 5 ]   
محمد احمد عسيري
Flying Way
الصورة الرمزية محمد احمد عسيري
Exclamation رد: تحطم طائرة إيرانية من طراز ATR تقل 66 راكب جنوب أصفهان ووفاتهم جميعاً بالحادث

العثور على حطام الطائرة الايرانية المفقودة في جبال زاغروس

عثرت فرق البحث الايرانية الثلاثاء على حطام طائرة ركاب فقدت في جبال زاغروس قبل يومين، بحسب ما اعلن متحدث باسم الحرس الثوري الثلاثاء لوسائل اعلام حكومية.

وقال المتحدث رمضان شريف لاذاعة الجمهورية الاسلامية في ايران (ايريب) إن "مروحيات الحرس الثوري عثرت هذا الصباح على حطام الطائرة في جبال دنا" في جنوب غرب البلاد.

وأضاف انه "منذ يوم أمس بدأت الطائرات المسيرة التابعة للحرس الثوري بمسح المنطقة الجغرافية حيث يحتمل أن تكون الطائرة قد تحطمت، وهذا الصباح تم ارسال مروحيتين تابعتين لسلاح الجو الى الموقع".

اختفت الطائرة التابعة لشركة آسمان اثناء قيامها بالرحلة إي.بي-3704 صباح الاحد فوق جبال زاغروس وعلى متنها 66 شخصا، بعد حوالى 45 دقيقة من إقلاعها من طهران.

وبعد يومين شهدا تساقط ثلوج وضباب كثيف، تحسنت الاحوال الجوية صباح الثلاثاء ووضحت الرؤية أمام فرق المروحيات.

https://www.argaam.com/ar/article/ar...tail/id/531137
  إقتباس
قديم 20-02-2018, 06:09 PM   رقم المشاركة : [ 6 ]   
ramjani
عضو خط الطيران
 
مشاهدة ملفه الشخصي
 
 
 
 
 
 
 
تم شكره 0 مرة في 0 مشاركة
ramjani غير متواجد حالياً  
افتراضي رد: تحطم طائرة إيرانية من طراز ATR تقل 66 راكب جنوب أصفهان ووفاتهم جميعاً بالحادث

أفادت أجهزة الطوارئ في إيران، الأحد، بحسب ما نقلت وكالة الطلبة الإيرانية، بسقوط طائرة ركاب قرب أصفهان.

وبعد أن أعلنت شركة الطيران الإيرانية "آسمان"، الأحد، مقتل 66 شخصاً كانوا على متن الطائرة المنكوبة، تراجعت الشركة، موضحة أنه لم يتم العثور على الطائرة حتى الآن.

وقال المتحدث باسم شركة "آسمان" محمد الطبطبائي لوكالة الأنباء الطلابية (ايسنا) "نظرا لظروف المنطقة الخاصة، لا نزال غير قادرين على الوصول إلى الموقع الدقيق لتحطم الطائرة، لذا لا يمكننا تأكيد مقتل جميع ركاب الطائرة بشكل دقيق وقاطع".

وكانت "آسمان" أعلنت في وقت سابق، الأحد، مقتل 66 شخصا كانوا على متن الطائرة. وقال متحدث باسم شركة آسمان للتلفزيون الرسمي الإيراني، إن تحطم الطائرة جنوبي البلاد أسفر عن مقتل جميع من كانوا على متنها، وعددهم 66 شخصا.

ونقل عن رئيس منظمة الطوارئ الإيرانية قوله: إن الطائرة سقطت في منطقة سميرم قرب أصفهان أثناء قيامها برحلة العاب داخلية بين طهران وياسوج.

وكانت وكالة تسنيم أعلنت في وقت سابق أن طائرة الركاب الإيرانية، التابعة لخطوط "آسمان" الجوية "اختفت من على شاشات الرادار" أثناء رحلة من طهران إلى ياسوج في جنوب غرب البلاد. ونقلت الوكالة عن مجتبى خالدي المتحدث باسم أجهزة الطوارئ قوله إن الطائرة الإيرانية سقطت في منطقة جبلية قرب بلدة سميرم.

إلى ذلك، نقلت وكالة "فارس" عن مدير عام العلاقات العامة في شركة خطوط "آسمان" أن الطائرة أقلعت عند الساعة الخامسة صباح الأحد من مطار "مهراباد" في طهران متجهة إلى مدينة ياسوج، الواقعة جنوب غربي إيران، مشيرا إلى أنه عند الساعة الثامنة من صباح الأحد اختفت الطائرة عن الرادار.

التوقيع ramjani
hguhf
العاب
al3ab ùfo
  إقتباس
إضافة رد

«     حريق بمقدمة طائرة B777 تابعة لمصر للطيران اثناء سحبها بعربة البوش باك بمطار القاهرة   |    البلدان الأكثر تعرضًا لحوادث الطائرات المدنية المميتة.. الولايات المتحدة أولًا وروسيا ثانيًا    »


الذين يشاهدون محتوى الموضوع الآن : 1 ( الأعضاء 0 والزوار 1)
 
أدوات الموضوع إبحث في الموضوع
إبحث في الموضوع:

البحث المتقدم

الانتقال السريع

المواضيع المتشابهه
الموضوع كاتب الموضوع المنتدى مشاركات آخر مشاركة
[حـادث] تحطم طائرة عسكرية إيرانية قرب أصفهان محمد احمد عسيري السلامة الجوية Flight Safety 0 02-06-2018 10:14 PM
تحطم مقاتلة إيرانية من طراز F14 قرب مدينة بوشهر NVG السلامة الجوية Flight Safety 1 31-08-2010 06:24 AM
الكونغو - بلاغ عن تحطم طائرة من طراز B737 جنوب شرق العاصمة كينشاسا NVG السلامة الجوية Flight Safety 4 02-05-2009 09:15 PM
جنوب أفريقيا - مصرع ستة أشخاص إثر تحطم طائرة خفيفة من طراز بيبر ساراتوجا NVG السلامة الجوية Flight Safety 1 22-10-2008 01:01 AM
تحطم طائرة عسكرية ايرانية من طراز F5 في إقليم خوزستان جنوب غرب ايران AboAyoob السلامة الجوية Flight Safety 1 07-07-2008 10:20 PM

الساعة الآن 10:25 PM.
Powered by vBulletin® Version 3.8.9
Copyright ©2000 - 2018, vBulletin Solutions, Inc.
حق العلم والمعرفة يعادل حق الحياة للأنسان - لذا نحن كمسؤلين في الشبكة متنازلون عن جميع الحقوق
All trademarks and copyrights held by respective owners. Member comments are owned by the poster.
خط الطيران 2004-2018